Al Mirqab — ZCTS4 — position and weather

sailwx.info

Track history (hours):
 
Tides and Currents Weather Stations Pressure Air Temp Water Temp Dewpoint Dewpoint Depression Visibility Wind Speed Wind Dir Waves Ship Positions

Al Mirqab

Last reported at 2016-Jul-22 14:33 UTC. Time now 2016-Jul-28 08:32 UTC.
Position N 41°03' E 009°32'.

Length 133 m; draft 5.2 m.

Type: Pleasure craft. MMSI: 319361000.

Date/timePositionNaut miles runAvg speedWind from/ knotsBaromVisibWave heightAir tempDewpointWater temp
2016-Jul-22 14:33N 41°03' E 009°32'1 0.4
2016-Jul-22 12:17N 41°04' E 009°33'0 0.0
2016-Jul-22 11:33N 41°04' E 009°33'0 0.0
2016-Jul-21 14:08N 41°04' E 009°33'87 2.7
2016-Jul-20 05:28N 42°12' E 008°21'1111.9
2016-Jul-20 04:33N 42°22' E 008°15'1211.7
2016-Jul-20 03:32N 42°33' E 008°09'1312.0
2016-Jul-20 02:28N 42°44' E 008°02'1112.5
2016-Jul-20 01:33N 42°55' E 007°56'1414.2
2016-Jul-20 00:33N 43°08' E 007°48'1514.5
2016-Jul-19 23:33N 43°21' E 007°40'1414.3
2016-Jul-19 22:33N 43°34' E 007°32'11 8.6
2016-Jul-19 21:16N 43°44' E 007°27'0 0.0
2016-Jul-19 19:32N 43°44' E 007°27'5 4.9
2016-Jul-19 18:31N 43°42' E 007°21'0 0.0
2016-Jul-19 17:26N 43°42' E 007°21'0 0.0
2016-Jul-19 16:33N 43°42' E 007°21'0 0.0
2016-Jul-19 15:33N 43°42' E 007°21'0 0.0
2016-Jul-19 14:31N 43°42' E 007°21'0 0.0
2016-Jul-19 13:32N 43°42' E 007°21'0 0.0
2016-Jul-19 11:15N 43°42' E 007°21'0 0.0
2016-Jul-19 10:28N 43°42' E 007°21'0 0.0
2016-Jul-19 09:20N 43°42' E 007°21'0 0.0
2016-Jul-19 08:32N 43°42' E 007°21'0 0.0
2016-Jul-19 07:33N 43°42' E 007°21'0 0.0
2016-Jul-19 04:29N 43°42' E 007°21'0 0.0
2016-Jul-19 03:29N 43°42' E 007°21'0 0.0
2016-Jul-19 02:30N 43°42' E 007°21'0 0.0
2016-Jul-19 01:31N 43°42' E 007°21'0 0.0
2016-Jul-19 00:20N 43°42' E 007°21'0 0.0
2016-Jul-18 23:32N 43°42' E 007°21'0 0.0
2016-Jul-18 22:33N 43°42' E 007°21'0 0.0
2016-Jul-18 20:16N 43°42' E 007°21'0 0.0
2016-Jul-18 19:20N 43°42' E 007°21'0 0.0
2016-Jul-18 18:18N 43°42' E 007°21'0 0.0
2016-Jul-18 17:12N 43°42' E 007°21'0 0.0
2016-Jul-18 16:31N 43°42' E 007°21'0 0.0
2016-Jul-18 14:26N 43°42' E 007°21'0 0.0
2016-Jul-18 13:33N 43°42' E 007°21'0 0.0
2016-Jul-18 11:22N 43°42' E 007°21'0 0.0
2016-Jul-18 10:23N 43°42' E 007°21'0 0.0
2016-Jul-18 09:29N 43°42' E 007°21'0 0.0
2016-Jul-18 07:31N 43°42' E 007°21'0 0.0
2016-Jul-18 05:26N 43°42' E 007°21'0 0.0
2016-Jul-18 04:21N 43°42' E 007°21'0 0.0
2016-Jul-18 01:29N 43°42' E 007°21'0 0.0
2016-Jul-18 00:12N 43°42' E 007°21'0 0.0
2016-Jul-17 23:30N 43°42' E 007°21'0 0.0
2016-Jul-17 22:19N 43°42' E 007°21'0 0.0
2016-Jul-17 21:26N 43°42' E 007°21'0 0.0
2016-Jul-17 19:33N 43°42' E 007°21'0 0.0
2016-Jul-17 18:30N 43°42' E 007°21'0 0.0
2016-Jul-17 17:31N 43°42' E 007°21'0 0.0
2016-Jul-17 16:32N 43°42' E 007°21'0 0.0
2016-Jul-17 15:29N 43°42' E 007°21'0 0.0
2016-Jul-17 13:28N 43°42' E 007°21'0 0.0
2016-Jul-17 12:29N 43°42' E 007°21'0 0.0
2016-Jul-17 11:32N 43°42' E 007°21'0 0.0
2016-Jul-17 10:15N 43°42' E 007°21'0 0.0
2016-Jul-17 09:25N 43°42' E 007°21'0 0.0
2016-Jul-17 08:16N 43°42' E 007°21'0 0.0
2016-Jul-17 07:17N 43°42' E 007°21'0 0.0
2016-Jul-17 06:18N 43°42' E 007°21'0 0.0
2016-Jul-17 03:32N 43°42' E 007°21'0 0.0
2016-Jul-17 02:14N 43°42' E 007°21'0 0.0
2016-Jul-17 01:27N 43°42' E 007°21'0 0.0
2016-Jul-17 00:34N 43°42' E 007°21'0 0.0
2016-Jul-16 23:28N 43°42' E 007°21'3 2.8
2016-Jul-16 22:33N 43°39' E 007°20'1413.9
2016-Jul-16 21:33N 43°30' E 007°06'2311.7
2016-Jul-16 19:33N 43°17' E 006°40'0 0.1
2016-Jul-16 18:23N 43°17' E 006°40'0 0.0
2016-Jul-15 18:18N 43°17' E 006°40'23 1.9
2016-Jul-15 06:33N 43°29' E 007°06'1414.5
2016-Jul-15 05:33N 43°39' E 007°20'3 2.3
2016-Jul-15 04:22N 43°42' E 007°21'0 0.1
2016-Jul-15 03:16N 43°42' E 007°21'0 0.0
2016-Jul-15 02:23N 43°42' E 007°21'0 0.1
2016-Jul-15 01:30N 43°42' E 007°21'0 0.0
2016-Jul-14 23:19N 43°42' E 007°21'0 0.1
2016-Jul-14 22:26N 43°42' E 007°21'0 0.1
2016-Jul-14 21:32N 43°42' E 007°21'0 0.1
2016-Jul-14 19:34N 43°42' E 007°21'0 0.0
2016-Jul-14 18:16N 43°42' E 007°21'0 0.0
2016-Jul-14 17:23N 43°42' E 007°21'0 0.0
2016-Jul-14 16:33N 43°42' E 007°21'0 0.0
2016-Jul-14 15:30N 43°42' E 007°21'0 0.0
2016-Jul-14 14:28N 43°42' E 007°21'0 0.0
2016-Jul-14 12:23N 43°42' E 007°21'0 0.0
2016-Jul-14 11:21N 43°42' E 007°21'0 0.0
2016-Jul-14 10:16N 43°42' E 007°21'0 0.0
2016-Jul-14 04:32N 43°42' E 007°21'0 0.0
2016-Jul-14 03:32N 43°42' E 007°21'0 0.1
2016-Jul-14 02:27N 43°42' E 007°21'0 0.0
2016-Jul-14 01:22N 43°42' E 007°21'0 0.0
2016-Jul-14 00:28N 43°42' E 007°21'0 0.0
2016-Jul-13 22:30N 43°42' E 007°21'0 0.1
2016-Jul-13 21:30N 43°42' E 007°21'0 0.0
2016-Jul-13 20:25N 43°42' E 007°21'0 0.1
2016-Jul-13 19:32N 43°42' E 007°21'0 0.0
2016-Jul-13 18:26N 43°42' E 007°21'0 0.0
2016-Jul-13 16:28N 43°42' E 007°21'0 0.0
2016-Jul-13 14:29N 43°42' E 007°21'0 0.0
2016-Jul-13 13:24N 43°42' E 007°21'0 0.0
2016-Jul-13 12:33N 43°42' E 007°21'0 0.1
2016-Jul-13 11:33N 43°42' E 007°21'0 0.2
2016-Jul-13 10:33N 43°42' E 007°21'0 0.0
2016-Jul-13 09:32N 43°42' E 007°21'0 0.0
2016-Jul-13 08:21N 43°42' E 007°21'0 0.1
2016-Jul-13 07:16N 43°42' E 007°21'0 0.0
2016-Jul-13 06:22N 43°42' E 007°21'0 0.0
2016-Jul-13 05:29N 43°42' E 007°21'0 0.0
2016-Jul-13 04:30N 43°42' E 007°21'0 0.0
2016-Jul-13 03:24N 43°42' E 007°21'0 0.0
2016-Jul-13 02:31N 43°42' E 007°21'0 0.0
2016-Jul-13 01:26N 43°42' E 007°21'0 0.0
2016-Jul-13 00:32N 43°42' E 007°21'0 0.0
2016-Jul-12 23:33N 43°42' E 007°21'0 0.0
2016-Jul-12 22:28N 43°42' E 007°21'0 0.0
2016-Jul-12 21:28N 43°42' E 007°21'0 0.0
2016-Jul-12 20:23N 43°42' E 007°21'0 0.1
2016-Jul-12 19:33N 43°42' E 007°21'4 3.2
2016-Jul-12 18:16N 43°44' E 007°26'810.5
2016-Jul-12 17:33N 43°38' E 007°21'1615.9
2016-Jul-12 16:33N 43°27' E 007°05'1614.6
2016-Jul-12 15:29N 43°16' E 006°49'  
Track history (hours):
 
Tides and Currents Weather Stations Pressure Air Temp Water Temp Dewpoint Dewpoint Depression Visibility Wind Speed Wind Dir Waves Ship Positions

Al Mirqab

Last reported at 2016-Jul-22 14:33 UTC. Time now 2016-Jul-28 08:32 UTC.
Position N 41°03' E 009°32'.

Length 133 m; draft 5.2 m.

Type: Pleasure craft. MMSI: 319361000.

Date/timePositionNaut miles runAvg speedWind from/ knotsBaromVisibWave heightAir tempDewpointWater temp
2016-Jul-22 14:33N 41°03' E 009°32'1 0.4
2016-Jul-22 12:17N 41°04' E 009°33'0 0.0
2016-Jul-22 11:33N 41°04' E 009°33'0 0.0
2016-Jul-21 14:08N 41°04' E 009°33'87 2.7
2016-Jul-20 05:28N 42°12' E 008°21'1111.9
2016-Jul-20 04:33N 42°22' E 008°15'1211.7
2016-Jul-20 03:32N 42°33' E 008°09'1312.0
2016-Jul-20 02:28N 42°44' E 008°02'1112.5
2016-Jul-20 01:33N 42°55' E 007°56'1414.2
2016-Jul-20 00:33N 43°08' E 007°48'1514.5
2016-Jul-19 23:33N 43°21' E 007°40'1414.3
2016-Jul-19 22:33N 43°34' E 007°32'11 8.6
2016-Jul-19 21:16N 43°44' E 007°27'0 0.0
2016-Jul-19 19:32N 43°44' E 007°27'5 4.9
2016-Jul-19 18:31N 43°42' E 007°21'0 0.0
2016-Jul-19 17:26N 43°42' E 007°21'0 0.0
2016-Jul-19 16:33N 43°42' E 007°21'0 0.0
2016-Jul-19 15:33N 43°42' E 007°21'0 0.0
2016-Jul-19 14:31N 43°42' E 007°21'0 0.0
2016-Jul-19 13:32N 43°42' E 007°21'0 0.0
2016-Jul-19 11:15N 43°42' E 007°21'0 0.0
2016-Jul-19 10:28N 43°42' E 007°21'0 0.0
2016-Jul-19 09:20N 43°42' E 007°21'0 0.0
2016-Jul-19 08:32N 43°42' E 007°21'0 0.0
2016-Jul-19 07:33N 43°42' E 007°21'0 0.0
2016-Jul-19 04:29N 43°42' E 007°21'0 0.0
2016-Jul-19 03:29N 43°42' E 007°21'0 0.0
2016-Jul-19 02:30N 43°42' E 007°21'0 0.0
2016-Jul-19 01:31N 43°42' E 007°21'0 0.0
2016-Jul-19 00:20N 43°42' E 007°21'0 0.0
2016-Jul-18 23:32N 43°42' E 007°21'0 0.0
2016-Jul-18 22:33N 43°42' E 007°21'0 0.0
2016-Jul-18 20:16N 43°42' E 007°21'0 0.0
2016-Jul-18 19:20N 43°42' E 007°21'0 0.0
2016-Jul-18 18:18N 43°42' E 007°21'0 0.0
2016-Jul-18 17:12N 43°42' E 007°21'0 0.0
2016-Jul-18 16:31N 43°42' E 007°21'0 0.0
2016-Jul-18 14:26N 43°42' E 007°21'0 0.0
2016-Jul-18 13:33N 43°42' E 007°21'0 0.0
2016-Jul-18 11:22N 43°42' E 007°21'0 0.0
2016-Jul-18 10:23N 43°42' E 007°21'0 0.0
2016-Jul-18 09:29N 43°42' E 007°21'0 0.0
2016-Jul-18 07:31N 43°42' E 007°21'0 0.0
2016-Jul-18 05:26N 43°42' E 007°21'0 0.0
2016-Jul-18 04:21N 43°42' E 007°21'0 0.0
2016-Jul-18 01:29N 43°42' E 007°21'0 0.0
2016-Jul-18 00:12N 43°42' E 007°21'0 0.0
2016-Jul-17 23:30N 43°42' E 007°21'0 0.0
2016-Jul-17 22:19N 43°42' E 007°21'0 0.0
2016-Jul-17 21:26N 43°42' E 007°21'0 0.0
2016-Jul-17 19:33N 43°42' E 007°21'0 0.0
2016-Jul-17 18:30N 43°42' E 007°21'0 0.0
2016-Jul-17 17:31N 43°42' E 007°21'0 0.0
2016-Jul-17 16:32N 43°42' E 007°21'0 0.0
2016-Jul-17 15:29N 43°42' E 007°21'0 0.0
2016-Jul-17 13:28N 43°42' E 007°21'0 0.0
2016-Jul-17 12:29N 43°42' E 007°21'0 0.0
2016-Jul-17 11:32N 43°42' E 007°21'0 0.0
2016-Jul-17 10:15N 43°42' E 007°21'0 0.0
2016-Jul-17 09:25N 43°42' E 007°21'0 0.0
2016-Jul-17 08:16N 43°42' E 007°21'0 0.0
2016-Jul-17 07:17N 43°42' E 007°21'0 0.0
2016-Jul-17 06:18N 43°42' E 007°21'0 0.0
2016-Jul-17 03:32N 43°42' E 007°21'0 0.0
2016-Jul-17 02:14N 43°42' E 007°21'0 0.0
2016-Jul-17 01:27N 43°42' E 007°21'0 0.0
2016-Jul-17 00:34N 43°42' E 007°21'0 0.0
2016-Jul-16 23:28N 43°42' E 007°21'3 2.8
2016-Jul-16 22:33N 43°39' E 007°20'1413.9
2016-Jul-16 21:33N 43°30' E 007°06'2311.7
2016-Jul-16 19:33N 43°17' E 006°40'0 0.1
2016-Jul-16 18:23N 43°17' E 006°40'0 0.0
2016-Jul-15 18:18N 43°17' E 006°40'23 1.9
2016-Jul-15 06:33N 43°29' E 007°06'1414.5
2016-Jul-15 05:33N 43°39' E 007°20'3 2.3
2016-Jul-15 04:22N 43°42' E 007°21'0 0.1
2016-Jul-15 03:16N 43°42' E 007°21'0 0.0
2016-Jul-15 02:23N 43°42' E 007°21'0 0.1
2016-Jul-15 01:30N 43°42' E 007°21'0 0.0
2016-Jul-14 23:19N 43°42' E 007°21'0 0.1
2016-Jul-14 22:26N 43°42' E 007°21'0 0.1
2016-Jul-14 21:32N 43°42' E 007°21'0 0.1
2016-Jul-14 19:34N 43°42' E 007°21'0 0.0
2016-Jul-14 18:16N 43°42' E 007°21'0 0.0
2016-Jul-14 17:23N 43°42' E 007°21'0 0.0
2016-Jul-14 16:33N 43°42' E 007°21'0 0.0
2016-Jul-14 15:30N 43°42' E 007°21'0 0.0
2016-Jul-14 14:28N 43°42' E 007°21'0 0.0
2016-Jul-14 12:23N 43°42' E 007°21'0 0.0
2016-Jul-14 11:21N 43°42' E 007°21'0 0.0
2016-Jul-14 10:16N 43°42' E 007°21'0 0.0
2016-Jul-14 04:32N 43°42' E 007°21'0 0.0
2016-Jul-14 03:32N 43°42' E 007°21'0 0.1
2016-Jul-14 02:27N 43°42' E 007°21'0 0.0
2016-Jul-14 01:22N 43°42' E 007°21'0 0.0
2016-Jul-14 00:28N 43°42' E 007°21'0 0.0
2016-Jul-13 22:30N 43°42' E 007°21'0 0.1
2016-Jul-13 21:30N 43°42' E 007°21'0 0.0
2016-Jul-13 20:25N 43°42' E 007°21'0 0.1
2016-Jul-13 19:32N 43°42' E 007°21'0 0.0
2016-Jul-13 18:26N 43°42' E 007°21'0 0.0
2016-Jul-13 16:28N 43°42' E 007°21'0 0.0
2016-Jul-13 14:29N 43°42' E 007°21'0 0.0
2016-Jul-13 13:24N 43°42' E 007°21'0 0.0
2016-Jul-13 12:33N 43°42' E 007°21'0 0.1
2016-Jul-13 11:33N 43°42' E 007°21'0 0.2
2016-Jul-13 10:33N 43°42' E 007°21'0 0.0
2016-Jul-13 09:32N 43°42' E 007°21'0 0.0
2016-Jul-13 08:21N 43°42' E 007°21'0 0.1
2016-Jul-13 07:16N 43°42' E 007°21'0 0.0
2016-Jul-13 06:22N 43°42' E 007°21'0 0.0
2016-Jul-13 05:29N 43°42' E 007°21'0 0.0
2016-Jul-13 04:30N 43°42' E 007°21'0 0.0
2016-Jul-13 03:24N 43°42' E 007°21'0 0.0
2016-Jul-13 02:31N 43°42' E 007°21'0 0.0
2016-Jul-13 01:26N 43°42' E 007°21'0 0.0
2016-Jul-13 00:32N 43°42' E 007°21'0 0.0
2016-Jul-12 23:33N 43°42' E 007°21'0 0.0
2016-Jul-12 22:28N 43°42' E 007°21'0 0.0
2016-Jul-12 21:28N 43°42' E 007°21'0 0.0
2016-Jul-12 20:23N 43°42' E 007°21'0 0.1
2016-Jul-12 19:33N 43°42' E 007°21'4 3.2
2016-Jul-12 18:16N 43°44' E 007°26'810.5
2016-Jul-12 17:33N 43°38' E 007°21'1615.9
2016-Jul-12 16:33N 43°27' E 007°05'1614.6
2016-Jul-12 15:29N 43°16' E 006°49'  

Dump ship's entire track history